Latest Weather Observations for Lucinda

IDQ60801

Issued at 8:13 am EST Monday 3 October 2022 (issued every 10 minutes, with the page automatically refreshed every 10 minutes)

About weather observations | Map of weather stations | Latest weather observations for QLD | Other Formats
Station Details ID: 032141 Name: LUCINDA POINT Lat: -18.52 Lon: 146.39 Height: 10.0 m
Data from the previous 72 hours. | See also: Recent months at Lucinda
Date/Time
EST
Temp
°C
App
Temp
°C
Dew
Point
°C
Rel
Hum
%
Delta-T
°C
Wind Press
QNH
hPa
Press
MSL
hPa
Rain since
9am
mm
Dir  Spd
km/h
Gust
km/h
Spd
kts
Gust
kts
03/08:00am - - - - - SW 11 11 6 6 1013.8 1013.8 -
03/07:30am - - - - - SW 11 15 6 8 1013.7 1013.7 -
03/07:00am - - - - - SW 11 13 6 7 1013.2 1013.2 -
03/06:30am - - - - - SW 11 13 6 7 1012.8 1012.7 -
03/06:00am - - - - - SW 9 11 5 6 1012.1 1012.0 -
03/05:30am - - - - - WSW 13 15 7 8 1011.8 1011.7 -
03/05:00am - - - - - SW 7 9 4 5 1011.4 1011.3 -
03/04:30am - - - - - SW 11 13 6 7 1011.5 1011.4 -
03/04:00am - - - - - SW 9 11 5 6 1011.3 1011.2 -
03/03:30am - - - - - WSW 9 11 5 6 1011.2 1011.1 -
03/03:00am - - - - - WNW 9 13 5 7 1011.4 1011.3 -
03/02:30am - - - - - N 13 17 7 9 1011.6 1011.5 -
03/02:00am - - - - - N 17 20 9 11 1011.4 1011.3 -
03/01:30am - - - - - NNE 15 17 8 9 1011.7 1011.6 -
03/01:00am - - - - - N 15 17 8 9 1012.2 1012.1 -
03/12:30am - - - - - NNW 15 20 8 11 1012.6 1012.5 -
03/12:00am - - - - - N 15 20 8 11 1012.8 1012.7 -
 
Date/Time
EST
Temp
°C
App
Temp
°C
Dew
Point
°C
Rel
Hum
%
Delta-T
°C
Wind Press
QNH
hPa
Press
MSL
hPa
Rain since
9am
mm
Dir  Spd
km/h
Gust
km/h
Spd
kts
Gust
kts
02/11:30pm - - - - - N 17 22 9 12 1012.8 1012.7 -
02/11:00pm - - - - - NNE 19 20 10 11 1013.2 1013.2 -
02/10:30pm - - - - - N 17 22 9 12 1013.3 1013.3 -
02/10:00pm - - - - - N 20 24 11 13 1013.3 1013.3 -
02/09:30pm - - - - - NE 20 24 11 13 1013.3 1013.3 -
02/09:00pm - - - - - NNE 20 24 11 13 1013.0 1012.9 -
02/08:30pm - - - - - NNE 19 22 10 12 1012.7 1012.6 -
02/08:00pm - - - - - NNE 22 26 12 14 1012.3 1012.2 -
02/07:30pm - - - - - N 20 24 11 13 1012.5 1012.4 -
02/07:00pm - - - - - N 17 22 9 12 1011.9 1011.8 -
02/06:30pm - - - - - NNE 20 20 11 11 1011.6 1011.5 -
02/06:00pm - - - - - NNE 20 22 11 12 1011.2 1011.1 -
02/05:30pm - - - - - NE 22 26 12 14 1010.6 1010.5 -
02/05:00pm - - - - - ENE 20 26 11 14 1010.4 1010.3 -
02/04:30pm - - - - - NE 22 26 12 14 1010.2 1010.1 -
02/04:00pm - - - - - NE 24 28 13 15 1009.9 1009.8 -
02/03:30pm - - - - - NE 20 24 11 13 1010.1 1010.0 -
02/03:00pm - - - - - NNE 17 22 9 12 1010.3 1010.2 -
02/02:30pm - - - - - NE 13 17 7 9 1010.5 1010.4 -
02/02:00pm - - - - - NE 15 20 8 11 1010.6 1010.5 -
02/01:30pm - - - - - ENE 13 19 7 10 1010.8 1010.7 -
02/01:00pm - - - - - NE 15 20 8 11 1011.2 1011.1 -
02/12:30pm - - - - - NE 15 17 8 9 1011.6 1011.5 -
02/12:00pm - - - - - ENE 11 13 6 7 1012.0 1011.9 -
02/11:30am - - - - - NE 7 9 4 5 1012.3 1012.2 -
02/11:00am - - - - - SSE 6 7 3 4 1012.6 1012.5 -
02/10:30am - - - - - SSW 2 6 1 3 1013.2 1013.2 -
02/10:00am - - - - - SSW 2 6 1 3 1013.0 1012.9 -
02/09:30am - - - - - WSW 7 9 4 5 1013.5 1013.5 -
02/09:00am - - - - - WSW 11 13 6 7 1013.6 1013.6 -
02/08:30am - - - - - WSW 11 15 6 8 1013.5 1013.5 -
02/08:00am - - - - - WSW 13 15 7 8 1013.2 1013.2 -
02/07:30am - - - - - WSW 15 17 8 9 1012.7 1012.6 -
02/07:00am - - - - - WSW 13 15 7 8 1012.3 1012.2 -
02/06:30am - - - - - WSW 17 19 9 10 1012.1 1012.0 -
02/06:00am - - - - - WSW 15 17 8 9 1012.1 1012.0 -
02/05:30am - - - - - WSW 17 20 9 11 1011.9 1011.8 -
02/05:00am - - - - - WSW 15 17 8 9 1011.5 1011.4 -
02/04:30am - - - - - WSW 17 19 9 10 1011.4 1011.3 -
02/04:00am - - - - - WSW 19 20 10 11 1011.7 1011.6 -
02/03:30am - - - - - WSW 17 19 9 10 1011.4 1011.3 -
02/03:00am - - - - - SW 19 20 10 11 1011.4 1011.3 -
02/02:30am - - - - - WSW 17 20 9 11 1011.9 1011.8 -
02/02:00am - - - - - W 11 17 6 9 1012.0 1011.9 -
02/01:30am - - - - - ENE 13 17 7 9 1012.3 1012.2 -
02/01:00am - - - - - NE 15 17 8 9 1012.9 1012.8 -
02/12:30am - - - - - NE 15 20 8 11 1013.2 1013.2 -
02/12:00am - - - - - NE 17 20 9 11 1013.4 1013.4 -
 
Date/Time
EST
Temp
°C
App
Temp
°C
Dew
Point
°C
Rel
Hum
%
Delta-T
°C
Wind Press
QNH
hPa
Press
MSL
hPa
Rain since
9am
mm
Dir  Spd
km/h
Gust
km/h
Spd
kts
Gust
kts
01/11:30pm - - - - - NE 17 20 9 11 1013.4 1013.4 -
01/11:00pm - - - - - ENE 17 24 9 13 1013.5 1013.5 -
01/10:30pm - - - - - ENE 17 20 9 11 1013.6 1013.6 -
01/10:00pm - - - - - ENE 15 20 8 11 1013.5 1013.5 -
01/09:30pm - - - - - E 13 17 7 9 1013.5 1013.5 -
01/09:00pm - - - - - ENE 15 20 8 11 1013.4 1013.4 -
01/08:30pm - - - - - E 17 22 9 12 1013.0 1012.9 -
01/08:00pm - - - - - ESE 15 22 8 12 1013.0 1012.9 -
01/07:30pm - - - - - ESE 19 26 10 14 1012.8 1012.7 -
01/07:00pm - - - - - SE 15 24 8 13 1012.5 1012.4 -
01/06:30pm - - - - - SE 17 26 9 14 1011.9 1011.8 -
01/06:00pm - - - - - ESE 20 28 11 15 1012.0 1011.9 -
01/05:30pm - - - - - ESE 19 28 10 15 1011.9 1011.8 -
01/05:00pm - - - - - ESE 15 24 8 13 1012.0 1011.9 -
01/04:30pm - - - - - ESE 19 26 10 14 1011.8 1011.7 -
01/04:00pm - - - - - E 22 28 12 15 1011.6 1011.5 -
01/03:30pm - - - - - ESE 20 28 11 15 1011.8 1011.7 -
01/03:00pm - - - - - ESE 20 30 11 16 1012.0 1011.9 -
01/02:30pm - - - - - ESE 17 28 9 15 1012.4 1012.3 -
01/02:00pm - - - - - ESE 19 26 10 14 1012.8 1012.7 -
01/01:30pm - - - - - ESE 17 26 9 14 1013.1 1013.0 -
01/01:00pm - - - - - ESE 19 26 10 14 1013.5 1013.5 -
01/12:30pm - - - - - ESE 19 26 10 14 1013.9 1013.9 -
01/12:00pm - - - - - ESE 20 26 11 14 1014.4 1014.4 -
01/11:30am - - - - - ESE 15 24 8 13 1015.1 1015.1 -
01/11:00am - - - - - ESE 15 24 8 13 1015.0 1015.0 -
01/10:30am - - - - - ESE 17 26 9 14 1015.2 1015.2 -
01/10:00am - - - - - ESE 19 28 10 15 1015.2 1015.2 -
01/09:30am - - - - - ESE 19 30 10 16 1015.4 1015.4 -
01/09:00am - - - - - SE 17 26 9 14 1015.3 1015.3 -
01/08:30am - - - - - ESE 15 20 8 11 1015.2 1015.2 -
01/08:00am - - - - - E 13 19 7 10 1015.1 1015.1 -
01/07:30am - - - - - E 17 22 9 12 1014.6 1014.6 -
01/07:00am - - - - - E 13 22 7 12 1014.4 1014.4 -
01/06:30am - - - - - E 15 19 8 10 1013.9 1013.9 -
01/06:00am - - - - - SE 11 17 6 9 1014.0 1014.0 -
01/05:30am - - - - - ESE 13 20 7 11 1013.9 1013.9 -
01/05:00am - - - - - E 15 20 8 11 1013.4 1013.4 -
01/04:30am - - - - - ESE 19 24 10 13 1012.9 1012.9 -
01/04:00am - - - - - ESE 17 24 9 13 1012.6 1012.6 -
01/03:30am - - - - - ESE 15 22 8 12 1013.1 1013.1 -
01/03:00am - - - - - SE 13 24 7 13 1012.9 1012.9 -
01/02:30am - - - - - ESE 15 22 8 12 1013.2 1013.2 -
01/02:00am - - - - - ESE 13 24 7 13 1013.4 1013.4 -
01/01:30am - - - - - SE 11 20 6 11 1013.8 1013.8 -
01/01:00am - - - - - SE 13 22 7 12 1014.2 1014.2 -
01/12:30am - - - - - ESE 13 20 7 11 1014.4 1014.4 -
01/12:00am - - - - - ESE 13 19 7 10 1014.5 1014.5 -
 
Date/Time
EST
Temp
°C
App
Temp
°C
Dew
Point
°C
Rel
Hum
%
Delta-T
°C
Wind Press
QNH
hPa
Press
MSL
hPa
Rain since
9am
mm
Dir  Spd
km/h
Gust
km/h
Spd
kts
Gust
kts
30/11:30pm - - - - - ESE 15 20 8 11 1014.7 1014.7 -
30/11:00pm - - - - - E 13 17 7 9 1014.9 1014.9 -
30/10:30pm - - - - - ESE 13 19 7 10 1014.9 1014.9 -
30/10:00pm - - - - - E 15 19 8 10 1014.9 1014.9 -
30/09:30pm - - - - - ESE 13 17 7 9 1015.1 1015.1 -
30/09:00pm - - - - - E 15 20 8 11 1015.0 1015.0 -
30/08:30pm - - - - - E 13 20 7 11 1014.8 1014.8 -
30/08:00pm - - - - - ENE 19 24 10 13 1014.8 1014.8 -
30/07:30pm - - - - - E 17 20 9 11 1014.6 1014.6 -
30/07:00pm - - - - - E 19 24 10 13 1014.3 1014.3 -
30/06:30pm - - - - - ESE 17 26 9 14 1014.2 1014.2 -
30/06:00pm - - - - - E 19 24 10 13 1013.7 1013.7 -
30/05:30pm - - - - - ESE 20 28 11 15 1013.5 1013.5 -
30/05:00pm - - - - - ESE 19 26 10 14 1013.5 1013.5 -
30/04:30pm - - - - - E 22 30 12 16 1013.4 1013.4 -
30/04:00pm - - - - - ESE 20 26 11 14 1013.4 1013.4 -
30/03:30pm - - - - - ESE 19 26 10 14 1013.8 1013.8 -
30/03:00pm - - - - - ESE 19 30 10 16 1013.8 1013.8 -
30/02:30pm - - - - - SE 15 24 8 13 1014.1 1014.1 -
30/02:00pm - - - - - SE 15 22 8 12 1014.5 1014.5 -
30/01:30pm - - - - - SE 17 26 9 14 1014.8 1014.8 -
30/01:00pm - - - - - SE 15 24 8 13 1015.0 1015.0 -
30/12:30pm - - - - - SE 11 24 6 13 1015.7 1015.7 -
30/12:00pm - - - - - S 13 17 7 9 1016.1 1016.1 -
30/11:30am - - - - - S 15 19 8 10 1016.4 1016.4 -
30/11:00am - - - - - S 15 19 8 10 1016.9 1016.9 -
30/10:30am - - - - - S 15 17 8 9 1017.2 1017.2 -
30/10:00am - - - - - SSW 15 17 8 9 1017.5 1017.5 -
30/09:30am - - - - - SSW 13 15 7 8 1017.4 1017.4 -
30/09:00am - - - - - SW 15 17 8 9 1017.5 1017.5 -
30/08:30am - - - - - SW 15 19 8 10 1017.4 1017.4 -

Other formats

Comma delimited format used in spreadsheet applications
http://www.bom.gov.au/fwo/IDQ60801/IDQ60801.94295.axf

JavaScript Object Notation format (JSON) in row-major order
http://www.bom.gov.au/fwo/IDQ60801/IDQ60801.94295.json

Data quality

Most of these data are generated automatically and are frequently updated. Quality checks on data are not normally performed. It is possible for incorrect values to appear. Refer to information at About Latest Weather Observations and please check the disclaimer before using these data.